sensor_id;sensor_type;location;lat;lon;timestamp;pressure;altitude;pressure_sealevel;temperature;humidity
61271;BME280;47150;53.032;8.960;2022-08-25T00:01:36;101889.91;;;21.94;100.00
61271;BME280;47150;53.032;8.960;2022-08-25T00:04:06;101887.28;;;21.73;100.00
61271;BME280;47150;53.032;8.960;2022-08-25T00:06:35;101888.19;;;21.74;100.00
61271;BME280;47150;53.032;8.960;2022-08-25T00:09:02;101887.03;;;21.80;100.00
61271;BME280;47150;53.032;8.960;2022-08-25T00:11:31;101889.97;;;21.54;100.00
61271;BME280;47150;53.032;8.960;2022-08-25T00:14:02;101886.94;;;21.81;100.00
61271;BME280;47150;53.032;8.960;2022-08-25T00:16:32;101890.22;;;21.88;100.00
61271;BME280;47150;53.032;8.960;2022-08-25T00:19:03;101888.31;;;21.90;100.00
61271;BME280;47150;53.032;8.960;2022-08-25T00:21:31;101883.13;;;21.87;100.00
61271;BME280;47150;53.032;8.960;2022-08-25T00:23:57;101891.22;;;21.85;100.00
61271;BME280;47150;53.032;8.960;2022-08-25T00:26:23;101888.03;;;21.77;100.00
61271;BME280;47150;53.032;8.960;2022-08-25T00:28:52;101890.19;;;21.69;100.00
61271;BME280;47150;53.032;8.960;2022-08-25T00:31:19;101892.13;;;21.65;100.00
61271;BME280;47150;53.032;8.960;2022-08-25T00:33:48;101894.63;;;21.70;100.00
61271;BME280;47150;53.032;8.960;2022-08-25T00:36:15;101889.34;;;21.68;100.00
61271;BME280;47150;53.032;8.960;2022-08-25T00:38:44;101892.06;;;21.67;100.00
61271;BME280;47150;53.032;8.960;2022-08-25T00:41:13;101893.44;;;21.56;100.00
61271;BME280;47150;53.032;8.960;2022-08-25T00:46:15;101893.19;;;21.42;100.00
61271;BME280;47150;53.032;8.960;2022-08-25T00:48:46;101896.28;;;21.33;100.00
61271;BME280;47150;53.032;8.960;2022-08-25T00:51:24;101894.22;;;21.19;100.00
61271;BME280;47150;53.032;8.960;2022-08-25T00:53:57;101892.63;;;21.15;100.00
61271;BME280;47150;53.032;8.960;2022-08-25T00:56:23;101902.16;;;21.20;100.00
61271;BME280;47150;53.032;8.960;2022-08-25T00:58:50;101905.84;;;21.18;100.00
61271;BME280;47150;53.032;8.960;2022-08-25T01:01:16;101913.34;;;21.09;100.00
61271;BME280;47150;53.032;8.960;2022-08-25T01:03:41;101908.00;;;21.09;100.00
61271;BME280;47150;53.032;8.960;2022-08-25T01:06:07;101910.88;;;21.05;100.00
61271;BME280;47150;53.032;8.960;2022-08-25T01:08:35;101912.00;;;20.99;100.00
61271;BME280;47150;53.032;8.960;2022-08-25T01:11:03;101911.25;;;20.96;100.00
61271;BME280;47150;53.032;8.960;2022-08-25T01:13:35;101920.41;;;20.90;100.00
61271;BME280;47150;53.032;8.960;2022-08-25T01:16:04;101915.38;;;20.82;100.00
61271;BME280;47150;53.032;8.960;2022-08-25T01:18:49;101905.75;;;20.78;100.00
61271;BME280;47150;53.032;8.960;2022-08-25T01:21:20;101918.53;;;20.71;100.00
61271;BME280;47150;53.032;8.960;2022-08-25T01:23:49;101917.66;;;20.71;100.00
61271;BME280;47150;53.032;8.960;2022-08-25T01:26:20;101919.88;;;20.59;100.00
61271;BME280;47150;53.032;8.960;2022-08-25T01:28:50;101921.94;;;20.53;100.00
61271;BME280;47150;53.032;8.960;2022-08-25T01:31:36;101918.56;;;20.48;100.00
61271;BME280;47150;53.032;8.960;2022-08-25T01:34:04;101922.34;;;20.44;100.00
61271;BME280;47150;53.032;8.960;2022-08-25T01:36:34;101921.78;;;20.35;100.00
61271;BME280;47150;53.032;8.960;2022-08-25T01:39:01;101927.22;;;20.32;100.00
61271;BME280;47150;53.032;8.960;2022-08-25T01:44:18;101922.00;;;20.29;100.00
61271;BME280;47150;53.032;8.960;2022-08-25T01:46:44;101920.25;;;20.28;100.00
61271;BME280;47150;53.032;8.960;2022-08-25T01:49:09;101917.66;;;20.27;100.00
61271;BME280;47150;53.032;8.960;2022-08-25T01:51:59;101919.59;;;20.23;100.00
61271;BME280;47150;53.032;8.960;2022-08-25T01:54:40;101919.88;;;20.15;100.00
61271;BME280;47150;53.032;8.960;2022-08-25T01:57:06;101918.41;;;20.08;100.00
61271;BME280;47150;53.032;8.960;2022-08-25T01:59:31;101923.75;;;20.08;100.00
61271;BME280;47150;53.032;8.960;2022-08-25T02:01:57;101918.53;;;20.05;100.00
61271;BME280;47150;53.032;8.960;2022-08-25T02:04:22;101927.44;;;20.04;100.00
61271;BME280;47150;53.032;8.960;2022-08-25T02:06:48;101920.50;;;20.00;100.00
61271;BME280;47150;53.032;8.960;2022-08-25T02:09:16;101924.16;;;19.97;100.00
61271;BME280;47150;53.032;8.960;2022-08-25T02:11:44;101920.69;;;19.95;100.00
61271;BME280;47150;53.032;8.960;2022-08-25T02:14:13;101923.56;;;19.89;100.00
61271;BME280;47150;53.032;8.960;2022-08-25T02:16:45;101921.97;;;19.85;100.00
61271;BME280;47150;53.032;8.960;2022-08-25T02:19:12;101921.78;;;19.89;100.00
61271;BME280;47150;53.032;8.960;2022-08-25T02:21:40;101927.28;;;19.85;100.00
61271;BME280;47150;53.032;8.960;2022-08-25T02:24:06;101923.00;;;19.81;100.00
61271;BME280;47150;53.032;8.960;2022-08-25T02:26:33;101925.94;;;19.73;100.00
61271;BME280;47150;53.032;8.960;2022-08-25T02:29:01;101922.72;;;19.63;100.00
61271;BME280;47150;53.032;8.960;2022-08-25T02:31:27;101925.41;;;19.63;100.00
61271;BME280;47150;53.032;8.960;2022-08-25T02:33:53;101923.69;;;19.62;100.00
61271;BME280;47150;53.032;8.960;2022-08-25T02:36:21;101929.09;;;19.59;100.00
61271;BME280;47150;53.032;8.960;2022-08-25T02:38:48;101934.56;;;19.56;100.00
61271;BME280;47150;53.032;8.960;2022-08-25T02:41:16;101920.50;;;19.52;100.00
61271;BME280;47150;53.032;8.960;2022-08-25T02:43:46;101923.75;;;19.35;100.00
61271;BME280;47150;53.032;8.960;2022-08-25T02:46:14;101929.53;;;19.23;100.00
61271;BME280;47150;53.032;8.960;2022-08-25T02:48:41;101922.66;;;19.41;100.00
61271;BME280;47150;53.032;8.960;2022-08-25T02:51:08;101915.31;;;19.48;100.00
61271;BME280;47150;53.032;8.960;2022-08-25T02:53:36;101913.84;;;19.39;100.00
61271;BME280;47150;53.032;8.960;2022-08-25T02:56:06;101913.97;;;19.36;100.00
61271;BME280;47150;53.032;8.960;2022-08-25T02:58:34;101918.22;;;19.42;100.00
61271;BME280;47150;53.032;8.960;2022-08-25T03:01:00;101923.75;;;19.35;100.00
61271;BME280;47150;53.032;8.960;2022-08-25T03:03:25;101915.94;;;19.31;100.00
61271;BME280;47150;53.032;8.960;2022-08-25T03:05:51;101920.47;;;19.29;100.00
61271;BME280;47150;53.032;8.960;2022-08-25T03:08:17;101920.50;;;19.27;100.00
61271;BME280;47150;53.032;8.960;2022-08-25T03:10:43;101916.91;;;19.28;100.00
61271;BME280;47150;53.032;8.960;2022-08-25T03:13:08;101934.59;;;19.05;100.00
61271;BME280;47150;53.032;8.960;2022-08-25T03:15:34;101930.59;;;19.17;100.00
61271;BME280;47150;53.032;8.960;2022-08-25T03:18:02;101929.81;;;19.15;100.00
61271;BME280;47150;53.032;8.960;2022-08-25T03:20:29;101931.69;;;19.12;100.00
61271;BME280;47150;53.032;8.960;2022-08-25T03:22:55;101941.63;;;19.08;100.00
61271;BME280;47150;53.032;8.960;2022-08-25T03:25:21;101938.34;;;19.00;100.00
61271;BME280;47150;53.032;8.960;2022-08-25T03:28:06;101935.69;;;19.00;100.00
61271;BME280;47150;53.032;8.960;2022-08-25T03:30:32;101929.38;;;19.02;100.00
61271;BME280;47150;53.032;8.960;2022-08-25T03:32:59;101927.63;;;19.01;100.00
61271;BME280;47150;53.032;8.960;2022-08-25T03:35:24;101912.69;;;18.97;100.00
61271;BME280;47150;53.032;8.960;2022-08-25T03:37:54;101925.16;;;18.95;100.00
61271;BME280;47150;53.032;8.960;2022-08-25T03:40:23;101920.91;;;18.89;100.00
61271;BME280;47150;53.032;8.960;2022-08-25T03:42:49;101928.13;;;18.86;100.00
61271;BME280;47150;53.032;8.960;2022-08-25T03:45:16;101929.16;;;18.82;100.00
61271;BME280;47150;53.032;8.960;2022-08-25T03:47:45;101928.03;;;18.62;100.00
61271;BME280;47150;53.032;8.960;2022-08-25T03:50:12;101938.25;;;18.75;100.00
61271;BME280;47150;53.032;8.960;2022-08-25T03:52:38;101931.09;;;18.77;100.00
61271;BME280;47150;53.032;8.960;2022-08-25T03:55:07;101942.59;;;18.77;100.00
61271;BME280;47150;53.032;8.960;2022-08-25T03:57:35;101934.78;;;18.72;100.00
61271;BME280;47150;53.032;8.960;2022-08-25T04:00:02;101936.53;;;18.74;100.00
61271;BME280;47150;53.032;8.960;2022-08-25T04:02:30;101938.34;;;18.71;100.00
61271;BME280;47150;53.032;8.960;2022-08-25T04:04:57;101931.41;;;18.67;100.00
61271;BME280;47150;53.032;8.960;2022-08-25T04:07:23;101937.00;;;18.60;100.00
61271;BME280;47150;53.032;8.960;2022-08-25T04:09:48;101936.25;;;18.54;100.00
61271;BME280;47150;53.032;8.960;2022-08-25T04:12:14;101936.03;;;18.62;100.00
61271;BME280;47150;53.032;8.960;2022-08-25T04:14:39;101936.72;;;18.67;100.00
61271;BME280;47150;53.032;8.960;2022-08-25T04:17:05;101936.94;;;18.61;100.00
61271;BME280;47150;53.032;8.960;2022-08-25T04:19:30;101937.78;;;18.62;100.00
61271;BME280;47150;53.032;8.960;2022-08-25T04:21:56;101942.25;;;18.61;100.00
61271;BME280;47150;53.032;8.960;2022-08-25T04:24:21;101932.75;;;18.54;100.00
61271;BME280;47150;53.032;8.960;2022-08-25T04:26:49;101934.69;;;18.49;100.00
61271;BME280;47150;53.032;8.960;2022-08-25T04:29:18;101941.63;;;18.53;100.00
61271;BME280;47150;53.032;8.960;2022-08-25T04:31:46;101942.66;;;18.49;100.00
61271;BME280;47150;53.032;8.960;2022-08-25T04:34:15;101938.13;;;18.51;100.00
61271;BME280;47150;53.032;8.960;2022-08-25T04:36:44;101943.38;;;18.54;100.00
61271;BME280;47150;53.032;8.960;2022-08-25T04:39:10;101941.63;;;18.53;100.00
61271;BME280;47150;53.032;8.960;2022-08-25T04:41:36;101940.81;;;18.51;100.00
61271;BME280;47150;53.032;8.960;2022-08-25T04:44:02;101937.50;;;18.43;100.00
61271;BME280;47150;53.032;8.960;2022-08-25T04:46:30;101943.72;;;18.43;100.00
61271;BME280;47150;53.032;8.960;2022-08-25T04:48:59;101933.72;;;18.51;100.00
61271;BME280;47150;53.032;8.960;2022-08-25T04:51:28;101942.03;;;18.41;100.00
61271;BME280;47150;53.032;8.960;2022-08-25T04:54:01;101936.44;;;18.48;100.00
61271;BME280;47150;53.032;8.960;2022-08-25T04:56:30;101929.13;;;18.55;100.00
61271;BME280;47150;53.032;8.960;2022-08-25T04:59:03;101932.88;;;18.49;100.00
61271;BME280;47150;53.032;8.960;2022-08-25T05:01:32;101939.16;;;18.47;100.00
61271;BME280;47150;53.032;8.960;2022-08-25T05:04:00;101941.19;;;18.40;100.00
61271;BME280;47150;53.032;8.960;2022-08-25T05:06:28;101947.03;;;18.51;100.00
61271;BME280;47150;53.032;8.960;2022-08-25T05:08:55;101945.06;;;18.57;100.00
61271;BME280;47150;53.032;8.960;2022-08-25T05:11:23;101951.66;;;18.45;100.00
61271;BME280;47150;53.032;8.960;2022-08-25T05:13:51;101947.88;;;18.52;100.00
61271;BME280;47150;53.032;8.960;2022-08-25T05:16:19;101949.69;;;18.78;100.00
61271;BME280;47150;53.032;8.960;2022-08-25T05:18:46;101948.50;;;18.87;100.00
61271;BME280;47150;53.032;8.960;2022-08-25T05:21:16;101949.34;;;18.62;100.00
61271;BME280;47150;53.032;8.960;2022-08-25T05:23:46;101958.75;;;18.46;100.00
61271;BME280;47150;53.032;8.960;2022-08-25T05:26:15;101946.63;;;18.35;100.00
61271;BME280;47150;53.032;8.960;2022-08-25T05:28:42;101944.66;;;18.69;100.00
61271;BME280;47150;53.032;8.960;2022-08-25T05:31:10;101953.44;;;18.72;100.00
61271;BME280;47150;53.032;8.960;2022-08-25T05:33:39;101939.38;;;18.67;100.00
61271;BME280;47150;53.032;8.960;2022-08-25T05:36:07;101935.13;;;18.90;100.00
61271;BME280;47150;53.032;8.960;2022-08-25T05:38:35;101927.81;;;18.95;100.00
61271;BME280;47150;53.032;8.960;2022-08-25T05:41:04;101928.19;;;19.11;100.00
61271;BME280;47150;53.032;8.960;2022-08-25T05:43:31;101928.34;;;19.07;100.00
61271;BME280;47150;53.032;8.960;2022-08-25T05:45:58;101920.16;;;19.36;100.00
61271;BME280;47150;53.032;8.960;2022-08-25T05:48:25;101922.19;;;19.55;100.00
61271;BME280;47150;53.032;8.960;2022-08-25T05:50:56;101919.19;;;19.63;100.00
61271;BME280;47150;53.032;8.960;2022-08-25T05:53:25;101915.88;;;19.56;100.00
61271;BME280;47150;53.032;8.960;2022-08-25T05:55:52;101927.91;;;19.44;100.00
61271;BME280;47150;53.032;8.960;2022-08-25T05:58:20;101917.97;;;19.48;100.00
61271;BME280;47150;53.032;8.960;2022-08-25T06:00:47;101919.25;;;19.61;100.00
61271;BME280;47150;53.032;8.960;2022-08-25T06:03:13;101925.75;;;19.54;100.00
61271;BME280;47150;53.032;8.960;2022-08-25T06:05:38;101916.34;;;19.67;100.00
61271;BME280;47150;53.032;8.960;2022-08-25T06:08:05;101917.94;;;19.73;100.00
61271;BME280;47150;53.032;8.960;2022-08-25T06:10:31;101920.75;;;19.68;100.00
61271;BME280;47150;53.032;8.960;2022-08-25T06:12:57;101913.28;;;20.02;100.00
61271;BME280;47150;53.032;8.960;2022-08-25T06:15:26;101906.78;;;19.87;100.00
61271;BME280;47150;53.032;8.960;2022-08-25T06:17:52;101920.84;;;19.90;100.00
61271;BME280;47150;53.032;8.960;2022-08-25T06:20:26;101922.75;;;20.11;100.00
61271;BME280;47150;53.032;8.960;2022-08-25T06:22:56;101934.06;;;20.17;100.00
61271;BME280;47150;53.032;8.960;2022-08-25T06:25:25;101917.97;;;20.41;100.00
61271;BME280;47150;53.032;8.960;2022-08-25T06:27:53;101927.09;;;20.57;100.00
61271;BME280;47150;53.032;8.960;2022-08-25T06:30:22;101917.13;;;20.83;100.00
61271;BME280;47150;53.032;8.960;2022-08-25T06:32:48;101911.78;;;20.83;100.00
61271;BME280;47150;53.032;8.960;2022-08-25T06:35:17;101914.53;;;21.02;100.00
61271;BME280;47150;53.032;8.960;2022-08-25T06:37:44;101917.53;;;21.15;100.00
61271;BME280;47150;53.032;8.960;2022-08-25T06:40:12;101915.53;;;21.20;100.00
61271;BME280;47150;53.032;8.960;2022-08-25T06:42:40;101911.66;;;21.27;100.00
61271;BME280;47150;53.032;8.960;2022-08-25T06:45:06;101909.78;;;21.30;100.00
61271;BME280;47150;53.032;8.960;2022-08-25T06:47:33;101903.16;;;21.38;100.00
61271;BME280;47150;53.032;8.960;2022-08-25T06:49:58;101906.31;;;21.67;100.00
61271;BME280;47150;53.032;8.960;2022-08-25T06:52:24;101905.34;;;21.49;100.00
61271;BME280;47150;53.032;8.960;2022-08-25T06:54:49;101900.31;;;21.62;100.00
61271;BME280;47150;53.032;8.960;2022-08-25T06:57:17;101908.13;;;21.67;100.00
61271;BME280;47150;53.032;8.960;2022-08-25T06:59:42;101896.25;;;21.91;100.00
61271;BME280;47150;53.032;8.960;2022-08-25T07:02:08;101907.31;;;22.03;100.00
61271;BME280;47150;53.032;8.960;2022-08-25T07:04:34;101903.03;;;22.18;100.00
61271;BME280;47150;53.032;8.960;2022-08-25T07:07:00;101907.22;;;22.23;100.00
61271;BME280;47150;53.032;8.960;2022-08-25T07:09:26;101902.44;;;22.30;100.00
61271;BME280;47150;53.032;8.960;2022-08-25T07:11:51;101895.81;;;22.39;100.00
61271;BME280;47150;53.032;8.960;2022-08-25T07:14:18;101906.03;;;22.29;100.00
61271;BME280;47150;53.032;8.960;2022-08-25T07:16:45;101905.56;;;22.21;100.00
61271;BME280;47150;53.032;8.960;2022-08-25T07:19:11;101899.19;;;22.23;100.00
61271;BME280;47150;53.032;8.960;2022-08-25T07:21:39;101894.56;;;22.46;100.00
61271;BME280;47150;53.032;8.960;2022-08-25T07:24:08;101896.63;;;22.58;100.00
61271;BME280;47150;53.032;8.960;2022-08-25T07:26:38;101894.16;;;22.71;100.00
61271;BME280;47150;53.032;8.960;2022-08-25T07:29:18;101891.16;;;22.77;100.00
61271;BME280;47150;53.032;8.960;2022-08-25T07:31:46;101891.16;;;22.77;100.00
61271;BME280;47150;53.032;8.960;2022-08-25T07:34:12;101885.19;;;22.72;100.00
61271;BME280;47150;53.032;8.960;2022-08-25T07:36:56;101892.00;;;22.95;100.00
61271;BME280;47150;53.032;8.960;2022-08-25T07:39:23;101895.66;;;22.94;100.00
61271;BME280;47150;53.032;8.960;2022-08-25T07:41:51;101894.81;;;22.76;100.00
61271;BME280;47150;53.032;8.960;2022-08-25T07:44:17;101891.72;;;23.19;100.00
61271;BME280;47150;53.032;8.960;2022-08-25T07:46:44;101904.03;;;23.23;100.00
61271;BME280;47150;53.032;8.960;2022-08-25T07:49:09;101893.13;;;23.26;100.00
61271;BME280;47150;53.032;8.960;2022-08-25T07:51:35;101894.06;;;23.25;100.00
61271;BME280;47150;53.032;8.960;2022-08-25T07:54:00;101889.63;;;23.42;100.00
61271;BME280;47150;53.032;8.960;2022-08-25T07:56:26;101889.91;;;23.69;100.00
61271;BME280;47150;53.032;8.960;2022-08-25T07:58:52;101888.34;;;23.81;100.00
61271;BME280;47150;53.032;8.960;2022-08-25T08:01:22;101893.38;;;23.71;100.00
61271;BME280;47150;53.032;8.960;2022-08-25T08:03:49;101891.81;;;23.67;100.00
61271;BME280;47150;53.032;8.960;2022-08-25T08:06:17;101890.47;;;23.92;100.00
61271;BME280;47150;53.032;8.960;2022-08-25T08:08:46;101883.78;;;24.15;100.00
61271;BME280;47150;53.032;8.960;2022-08-25T08:11:29;101880.03;;;24.34;100.00
61271;BME280;47150;53.032;8.960;2022-08-25T08:13:59;101884.97;;;24.41;100.00
61271;BME280;47150;53.032;8.960;2022-08-25T08:16:27;101877.94;;;24.39;100.00
61271;BME280;47150;53.032;8.960;2022-08-25T08:18:55;101873.53;;;24.38;100.00
61271;BME280;47150;53.032;8.960;2022-08-25T08:21:25;101857.44;;;24.68;100.00
61271;BME280;47150;53.032;8.960;2022-08-25T08:23:52;101859.56;;;24.92;100.00
61271;BME280;47150;53.032;8.960;2022-08-25T08:26:19;101851.31;;;24.80;100.00
61271;BME280;47150;53.032;8.960;2022-08-25T08:28:45;101854.59;;;24.86;100.00
61271;BME280;47150;53.032;8.960;2022-08-25T08:31:12;101854.69;;;24.98;100.00
61271;BME280;47150;53.032;8.960;2022-08-25T08:33:38;101860.00;;;25.14;100.00
61271;BME280;47150;53.032;8.960;2022-08-25T08:36:09;101856.59;;;25.25;100.00
61271;BME280;47150;53.032;8.960;2022-08-25T08:38:37;101859.97;;;25.29;100.00
61271;BME280;47150;53.032;8.960;2022-08-25T08:56:10;101840.88;;;25.90;100.00
61271;BME280;47150;53.032;8.960;2022-08-25T09:01:22;101830.75;;;26.08;100.00
61271;BME280;47150;53.032;8.960;2022-08-25T09:04:23;101834.31;;;25.94;100.00
61271;BME280;47150;53.032;8.960;2022-08-25T09:06:53;101827.25;;;26.33;100.00
61271;BME280;47150;53.032;8.960;2022-08-25T09:09:28;101837.78;;;26.23;100.00
61271;BME280;47150;53.032;8.960;2022-08-25T09:12:48;101841.41;;;26.49;100.00
61271;BME280;47150;53.032;8.960;2022-08-25T09:15:35;101832.13;;;26.41;100.00
61271;BME280;47150;53.032;8.960;2022-08-25T09:18:47;101830.91;;;26.85;100.00
61271;BME280;47150;53.032;8.960;2022-08-25T09:24:30;101820.13;;;26.85;100.00
61271;BME280;47150;53.032;8.960;2022-08-25T09:30:18;101813.75;;;27.12;100.00
61271;BME280;47150;53.032;8.960;2022-08-25T09:32:51;101809.63;;;27.32;100.00
61271;BME280;47150;53.032;8.960;2022-08-25T09:35:27;101800.53;;;27.33;100.00
61271;BME280;47150;53.032;8.960;2022-08-25T09:40:28;101804.41;;;27.55;100.00
61271;BME280;47150;53.032;8.960;2022-08-25T09:42:58;101808.59;;;27.59;100.00
61271;BME280;47150;53.032;8.960;2022-08-25T09:45:39;101800.44;;;27.96;100.00
61271;BME280;47150;53.032;8.960;2022-08-25T09:48:22;101798.63;;;27.72;100.00
61271;BME280;47150;53.032;8.960;2022-08-25T09:50:50;101794.25;;;27.58;100.00
61271;BME280;47150;53.032;8.960;2022-08-25T09:53:22;101784.63;;;27.78;100.00
61271;BME280;47150;53.032;8.960;2022-08-25T09:56:02;101779.75;;;27.83;100.00
61271;BME280;47150;53.032;8.960;2022-08-25T09:58:30;101779.91;;;28.17;100.00
61271;BME280;47150;53.032;8.960;2022-08-25T10:01:11;101777.06;;;27.83;100.00
61271;BME280;47150;53.032;8.960;2022-08-25T10:04:00;101768.91;;;28.32;100.00
61271;BME280;47150;53.032;8.960;2022-08-25T10:06:53;101757.22;;;28.31;100.00
61271;BME280;47150;53.032;8.960;2022-08-25T10:09:33;101753.03;;;28.27;100.00
61271;BME280;47150;53.032;8.960;2022-08-25T10:12:15;101761.47;;;28.11;100.00
61271;BME280;47150;53.032;8.960;2022-08-25T10:14:49;101755.59;;;28.17;100.00
61271;BME280;47150;53.032;8.960;2022-08-25T10:17:30;101753.25;;;28.82;100.00
61271;BME280;47150;53.032;8.960;2022-08-25T10:22:35;101740.72;;;28.81;100.00
61271;BME280;47150;53.032;8.960;2022-08-25T10:25:10;101734.16;;;28.50;100.00
61271;BME280;47150;53.032;8.960;2022-08-25T10:30:28;101732.13;;;28.76;100.00
61271;BME280;47150;53.032;8.960;2022-08-25T10:36:14;101729.72;;;29.51;100.00
61271;BME280;47150;53.032;8.960;2022-08-25T10:38:51;101723.91;;;29.55;98.61
61271;BME280;47150;53.032;8.960;2022-08-25T10:44:14;101716.41;;;29.48;95.50
61271;BME280;47150;53.032;8.960;2022-08-25T10:49:54;101695.66;;;29.69;95.62
61271;BME280;47150;53.032;8.960;2022-08-25T10:52:31;101701.75;;;29.83;91.83
61271;BME280;47150;53.032;8.960;2022-08-25T10:57:57;101682.63;;;29.96;89.92
61271;BME280;47150;53.032;8.960;2022-08-25T11:00:45;101672.16;;;30.12;85.57
61271;BME280;47150;53.032;8.960;2022-08-25T11:03:44;101659.88;;;30.39;80.37
61271;BME280;47150;53.032;8.960;2022-08-25T11:06:48;101672.75;;;30.16;88.22
61271;BME280;47150;53.032;8.960;2022-08-25T11:09:24;101672.06;;;30.45;91.75
61271;BME280;47150;53.032;8.960;2022-08-25T11:12:02;101665.13;;;30.31;89.47
61271;BME280;47150;53.032;8.960;2022-08-25T11:14:40;101670.84;;;30.59;85.22
61271;BME280;47150;53.032;8.960;2022-08-25T11:20:19;101667.78;;;30.42;83.88
61271;BME280;47150;53.032;8.960;2022-08-25T11:25:44;101652.97;;;30.46;77.39
61271;BME280;47150;53.032;8.960;2022-08-25T11:28:20;101647.56;;;30.46;83.61
61271;BME280;47150;53.032;8.960;2022-08-25T11:31:01;101642.63;;;31.21;76.76
61271;BME280;47150;53.032;8.960;2022-08-25T11:33:29;101638.63;;;31.45;72.48
61271;BME280;47150;53.032;8.960;2022-08-25T11:36:02;101632.03;;;31.57;70.57
61271;BME280;47150;53.032;8.960;2022-08-25T11:44:43;101633.63;;;31.60;57.48
61271;BME280;47150;53.032;8.960;2022-08-25T11:50:35;101627.44;;;31.97;67.79
61271;BME280;47150;53.032;8.960;2022-08-25T11:53:25;101638.84;;;32.01;68.58
61271;BME280;47150;53.032;8.960;2022-08-25T11:55:54;101632.69;;;32.18;65.94
61271;BME280;47150;53.032;8.960;2022-08-25T12:00:58;101630.31;;;31.76;64.49
61271;BME280;47150;53.032;8.960;2022-08-25T12:06:26;101617.44;;;31.88;66.55
61271;BME280;47150;53.032;8.960;2022-08-25T12:21:55;101604.84;;;33.08;50.50
61271;BME280;47150;53.032;8.960;2022-08-25T12:30:27;101592.94;;;33.45;53.78
61271;BME280;47150;53.032;8.960;2022-08-25T12:33:34;101589.50;;;35.82;43.30
61271;BME280;47150;53.032;8.960;2022-08-25T12:36:25;101586.97;;;35.39;44.67
61271;BME280;47150;53.032;8.960;2022-08-25T12:39:08;101581.88;;;36.56;41.67
61271;BME280;47150;53.032;8.960;2022-08-25T12:42:01;101587.41;;;34.85;46.38
61271;BME280;47150;53.032;8.960;2022-08-25T12:49:45;101580.47;;;37.76;39.54
61271;BME280;47150;53.032;8.960;2022-08-25T12:52:14;101567.59;;;35.73;44.46
61271;BME280;47150;53.032;8.960;2022-08-25T12:55:02;101566.41;;;35.02;48.07
61271;BME280;47150;53.032;8.960;2022-08-25T12:57:45;101565.59;;;36.23;43.35
61271;BME280;47150;53.032;8.960;2022-08-25T13:00:24;101568.66;;;36.28;42.55
61271;BME280;47150;53.032;8.960;2022-08-25T13:16:02;101556.81;;;36.68;42.22
61271;BME280;47150;53.032;8.960;2022-08-25T13:18:36;101562.28;;;37.22;39.87
61271;BME280;47150;53.032;8.960;2022-08-25T13:23:56;101544.38;;;36.34;40.00
61271;BME280;47150;53.032;8.960;2022-08-25T13:26:30;101544.25;;;35.13;42.80
61271;BME280;47150;53.032;8.960;2022-08-25T13:31:31;101530.13;;;38.29;37.47
61271;BME280;47150;53.032;8.960;2022-08-25T13:34:03;101527.94;;;39.89;35.34
61271;BME280;47150;53.032;8.960;2022-08-25T13:36:34;101523.13;;;37.67;38.99
61271;BME280;47150;53.032;8.960;2022-08-25T13:39:26;101529.16;;;38.73;37.04
61271;BME280;47150;53.032;8.960;2022-08-25T13:41:57;101528.13;;;37.33;39.11
61271;BME280;47150;53.032;8.960;2022-08-25T13:44:27;101524.25;;;36.50;40.70
61271;BME280;47150;53.032;8.960;2022-08-25T13:47:16;101521.84;;;36.78;40.65
61271;BME280;47150;53.032;8.960;2022-08-25T13:53:09;101519.47;;;36.52;42.40
61271;BME280;47150;53.032;8.960;2022-08-25T13:55:51;101519.16;;;37.99;38.20
61271;BME280;47150;53.032;8.960;2022-08-25T13:58:30;101501.69;;;37.55;39.28
61271;BME280;47150;53.032;8.960;2022-08-25T14:01:11;101516.41;;;37.16;39.05
61271;BME280;47150;53.032;8.960;2022-08-25T14:03:45;101508.22;;;37.84;36.99
61271;BME280;47150;53.032;8.960;2022-08-25T14:09:05;101502.50;;;36.17;41.67
61271;BME280;47150;53.032;8.960;2022-08-25T14:11:54;101495.94;;;37.27;38.07
61271;BME280;47150;53.032;8.960;2022-08-25T14:16:47;101495.72;;;37.96;37.04
61271;BME280;47150;53.032;8.960;2022-08-25T14:19:21;101496.84;;;38.97;35.80
61271;BME280;47150;53.032;8.960;2022-08-25T14:21:48;101495.72;;;37.13;38.45
61271;BME280;47150;53.032;8.960;2022-08-25T14:24:19;101495.81;;;39.26;35.52
61271;BME280;47150;53.032;8.960;2022-08-25T14:26:47;101482.81;;;39.13;34.04
61271;BME280;47150;53.032;8.960;2022-08-25T14:29:13;101486.88;;;36.88;38.32
61271;BME280;47150;53.032;8.960;2022-08-25T14:31:42;101485.03;;;37.57;37.43
61271;BME280;47150;53.032;8.960;2022-08-25T14:34:21;101474.44;;;36.31;40.01
61271;BME280;47150;53.032;8.960;2022-08-25T14:36:49;101479.31;;;38.76;36.12
61271;BME280;47150;53.032;8.960;2022-08-25T14:39:16;101479.81;;;36.71;38.87
61271;BME280;47150;53.032;8.960;2022-08-25T14:41:43;101474.38;;;37.77;38.01
61271;BME280;47150;53.032;8.960;2022-08-25T14:44:11;101482.44;;;36.64;40.80
61271;BME280;47150;53.032;8.960;2022-08-25T14:46:52;101465.56;;;35.89;41.11
61271;BME280;47150;53.032;8.960;2022-08-25T14:49:22;101464.22;;;37.47;38.17
61271;BME280;47150;53.032;8.960;2022-08-25T14:51:54;101458.72;;;37.92;38.07
61271;BME280;47150;53.032;8.960;2022-08-25T14:54:24;101457.78;;;38.37;36.32
61271;BME280;47150;53.032;8.960;2022-08-25T14:56:52;101453.91;;;38.31;35.66
61271;BME280;47150;53.032;8.960;2022-08-25T14:59:17;101458.22;;;37.14;37.65
61271;BME280;47150;53.032;8.960;2022-08-25T15:01:43;101465.53;;;35.97;40.32
61271;BME280;47150;53.032;8.960;2022-08-25T15:04:12;101460.63;;;36.16;41.01